Time;durP1;ratioP1;P1;durP2;ratioP2;P2;SDS_P1;SDS_P2;PMS_P1;PMS_P2;Temp;Humidity;BMP_temperature;BMP_pressure;BME280_temperature;BME280_humidity;BME280_pressure;Samples;Min_cycle;Max_cycle;Signal;HPM_P1;HPM_P2
2022/07/15 00:00:13;;;;;;;3.50;1.70;;;;;;;18.62;60.78;99272.02;25104;1315;3027392;-65
2022/07/15 00:02:42;;;;;;;4.00;1.60;;;;;;;18.65;60.85;99271.35;25133;1315;3026432;-67
2022/07/15 00:05:11;;;;;;;3.10;1.50;;;;;;;18.68;60.80;99270.31;25132;1315;3026448;-68
2022/07/15 00:07:40;;;;;;;2.20;1.10;;;;;;;18.69;60.60;99267.09;25114;1315;3058779;-65
2022/07/15 00:10:15;;;;;;;2.30;1.40;;;;;;;18.71;60.82;99268.52;25118;1315;3026892;-67
2022/07/15 00:12:49;;;;;;;2.80;1.50;;;;;;;18.74;60.96;99270.64;25153;1316;3052608;-66
2022/07/15 00:15:20;;;;;;;4.60;1.40;;;;;;;18.68;60.96;99268.79;25135;1315;3026278;-67
2022/07/15 00:17:50;;;;;;;3.10;1.50;;;;;;;18.73;60.42;99269.49;25072;1314;3026497;-69
2022/07/15 00:20:20;;;;;;;4.00;1.70;;;;;;;18.69;60.85;99271.55;25100;1315;3027654;-67
2022/07/15 00:22:49;;;;;;;3.70;1.90;;;;;;;18.66;60.76;99272.91;25142;1315;3027127;-65
2022/07/15 00:25:18;;;;;;;6.80;2.30;;;;;;;18.58;61.33;99267.98;25119;1315;3026497;-66
2022/07/15 00:27:58;;;;;;;3.50;1.80;;;;;;;18.59;61.49;99269.88;25131;1315;3026717;-66
2022/07/15 00:30:38;;;;;;;4.70;1.70;;;;;;;18.52;61.55;99269.94;25111;1315;3051569;-65
2022/07/15 00:33:08;;;;;;;4.40;2.30;;;;;;;18.46;61.63;99262.36;25124;1315;3069704;-66
2022/07/15 00:35:37;;;;;;;5.00;2.30;;;;;;;18.44;61.68;99266.13;25094;1315;3027258;-68
2022/07/15 00:38:10;;;;;;;8.40;2.00;;;;;;;18.47;61.56;99265.13;25112;1315;3026254;-69
2022/07/15 00:40:48;;;;;;;4.10;1.80;;;;;;;18.38;61.97;99265.06;25133;1315;3026844;-66
2022/07/15 00:43:18;;;;;;;4.00;2.00;;;;;;;18.37;61.80;99264.72;25094;1315;3059225;-67
2022/07/15 00:45:48;;;;;;;3.80;1.80;;;;;;;18.32;62.01;99266.98;25086;1315;3026966;-65
2022/07/15 00:48:17;;;;;;;4.50;1.50;;;;;;;18.32;62.18;99266.91;25113;1315;3026716;-64
2022/07/15 00:50:47;;;;;;;6.40;1.90;;;;;;;18.32;62.10;99263.92;25026;1315;3027811;-64
2022/07/15 00:53:18;;;;;;;3.40;1.50;;;;;;;18.29;62.31;99269.34;25148;1315;3026717;-69
2022/07/15 00:55:47;;;;;;;4.00;1.70;;;;;;;18.31;61.76;99261.38;25136;1315;3052720;-67
2022/07/15 00:58:25;;;;;;;6.10;1.50;;;;;;;18.31;61.86;99259.55;25105;1314;3026524;-65
2022/07/15 01:00:55;;;;;;;5.70;1.60;;;;;;;18.32;62.26;99266.11;25025;1316;3049980;-65
2022/07/15 01:03:25;;;;;;;3.00;1.80;;;;;;;18.28;62.04;99263.52;25145;1316;3028717;-66
2022/07/15 01:05:54;;;;;;;4.00;1.50;;;;;;;18.25;61.92;99262.61;25157;1315;3029716;-66
2022/07/15 01:08:24;;;;;;;2.20;1.50;;;;;;;18.15;62.48;99263.39;25109;1315;3026539;-66
2022/07/15 01:10:52;;;;;;;5.60;1.80;;;;;;;18.14;62.85;99267.20;25092;1315;3029941;-69
2022/07/15 01:13:22;;;;;;;7.50;1.80;;;;;;;18.12;62.73;99264.41;25127;1315;3053605;-65
2022/07/15 01:15:52;;;;;;;2.80;1.70;;;;;;;18.10;62.98;99261.73;25011;1315;3026951;-66
2022/07/15 01:18:21;;;;;;;2.60;1.60;;;;;;;18.06;62.79;99256.59;25070;1315;3027565;-65
2022/07/15 01:20:51;;;;;;;4.50;1.70;;;;;;;18.04;62.83;99253.67;25145;1318;3053812;-67
2022/07/15 01:23:20;;;;;;;3.30;1.60;;;;;;;18.02;62.69;99253.45;25085;1316;3026897;-68
2022/07/15 01:26:16;;;;;;;2.90;1.60;;;;;;;17.93;63.23;99253.08;25007;1316;3047959;-66
2022/07/15 01:28:46;;;;;;;2.00;1.50;;;;;;;17.90;63.27;99254.40;25063;1318;3026433;-65
2022/07/15 01:31:16;;;;;;;3.00;1.60;;;;;;;17.93;63.04;99254.13;25031;1318;3026851;-67
2022/07/15 01:33:46;;;;;;;2.10;1.60;;;;;;;17.87;62.98;99255.58;25107;1316;3027545;-66
2022/07/15 01:36:15;;;;;;;3.80;1.80;;;;;;;17.91;62.91;99254.96;25062;1318;3028336;-66
2022/07/15 01:38:50;;;;;;;6.10;1.80;;;;;;;17.86;63.25;99251.20;25097;1318;3052860;-65
2022/07/15 01:41:22;;;;;;;3.30;1.50;;;;;;;17.91;63.05;99254.48;25087;1318;3026685;-69
2022/07/15 01:43:52;;;;;;;6.10;1.50;;;;;;;17.90;62.91;99253.13;25090;1318;3026422;-68
2022/07/15 01:46:21;;;;;;;5.40;1.80;;;;;;;17.86;62.83;99255.61;25012;1316;3028064;-67
2022/07/15 01:52:02;;;;;;;4.10;1.40;;;;;;;17.95;62.49;99252.73;25076;1317;3048796;-68
2022/07/15 01:54:31;;;;;;;4.70;1.50;;;;;;;17.98;62.57;99249.41;25086;1317;3026515;-69
2022/07/15 01:57:04;;;;;;;2.30;1.20;;;;;;;17.98;62.42;99250.36;25057;1316;3026432;-69
2022/07/15 01:59:41;;;;;;;4.10;1.40;;;;;;;18.00;62.02;99249.80;25006;1317;3068931;-67
2022/07/15 02:02:10;;;;;;;3.90;1.60;;;;;;;17.97;62.31;99250.26;25110;1316;3026125;-69
2022/07/15 02:04:39;;;;;;;4.40;1.30;;;;;;;17.95;62.25;99248.27;25024;1317;3026606;-63
2022/07/15 02:07:08;;;;;;;3.00;1.30;;;;;;;17.98;62.24;99248.67;25029;1318;3070463;-67
2022/07/15 02:09:37;;;;;;;1.70;1.20;;;;;;;18.00;61.88;99245.71;25042;1318;3026669;-65
2022/07/15 02:12:07;;;;;;;3.70;1.50;;;;;;;17.97;62.12;99247.44;24936;1319;3053815;-64
2022/07/15 02:14:41;;;;;;;2.30;1.40;;;;;;;17.99;61.96;99246.34;25087;1318;3068363;-68
2022/07/15 02:17:10;;;;;;;6.70;1.50;;;;;;;17.99;62.11;99247.45;25034;1317;3026808;-68
2022/07/15 02:19:43;;;;;;;2.40;1.40;;;;;;;18.06;61.75;99246.16;25245;1318;3027844;-64
2022/07/15 02:22:12;;;;;;;4.50;1.70;;;;;;;18.10;61.77;99248.33;25356;1317;3026451;-64
2022/07/15 02:24:42;;;;;;;2.90;1.30;;;;;;;18.15;61.34;99246.05;25433;1317;3026777;-66
2022/07/15 02:27:11;;;;;;;2.90;1.40;;;;;;;18.27;61.14;99245.11;25277;1318;3053266;-65
2022/07/15 02:29:40;;;;;;;3.20;1.90;;;;;;;18.33;60.80;99248.23;25081;1318;3027500;-66
2022/07/15 02:32:09;;;;;;;4.50;1.50;;;;;;;18.37;60.86;99250.08;25011;1316;3048167;-66
2022/07/15 02:34:38;;;;;;;6.80;2.20;;;;;;;18.40;60.29;99247.20;25070;1318;3027793;-66
2022/07/15 02:37:09;;;;;;;6.50;1.90;;;;;;;18.37;60.53;99248.16;25066;1317;3027144;-65
2022/07/15 02:39:38;;;;;;;4.70;1.90;;;;;;;18.40;60.26;99253.38;25052;1317;3027041;-66
2022/07/15 02:42:07;;;;;;;5.50;2.20;;;;;;;18.44;59.72;99253.13;25078;1316;3051295;-66
2022/07/15 02:44:38;;;;;;;5.70;2.40;;;;;;;18.48;60.10;99250.98;25047;1317;3027294;-63
2022/07/15 02:47:08;;;;;;;4.80;2.60;;;;;;;18.52;59.48;99252.27;25042;1318;3028669;-67
2022/07/15 02:49:37;;;;;;;4.90;2.50;;;;;;;18.53;59.22;99248.73;25072;1316;3026147;-70
2022/07/15 02:52:06;;;;;;;4.50;2.40;;;;;;;18.58;59.22;99249.35;25025;1317;3052195;-66
2022/07/15 02:54:39;;;;;;;4.10;1.80;;;;;;;18.65;58.99;99248.46;25092;1316;3026475;-65
2022/07/15 02:57:08;;;;;;;10.10;1.90;;;;;;;18.76;58.49;99249.70;24991;1318;3027059;-67
2022/07/15 02:59:39;;;;;;;8.20;1.70;;;;;;;18.86;57.95;99246.59;25079;1316;3027281;-68
2022/07/15 03:02:10;;;;;;;4.50;2.00;;;;;;;18.99;57.44;99238.47;25004;1319;3026718;-66
2022/07/15 03:04:40;;;;;;;4.50;2.10;;;;;;;19.11;57.09;99246.30;25044;1318;3026727;-69
2022/07/15 03:07:10;;;;;;;3.50;2.10;;;;;;;19.20;56.97;99242.98;25048;1317;3028556;-68
2022/07/15 03:09:42;;;;;;;6.40;2.00;;;;;;;19.27;56.64;99246.98;25077;1318;3052349;-70
2022/07/15 03:12:11;;;;;;;4.50;2.00;;;;;;;19.29;56.96;99247.19;25054;1316;3026442;-63
2022/07/15 03:14:40;;;;;;;8.70;2.50;;;;;;;19.30;56.84;99252.17;25012;1317;3055473;-67
2022/07/15 03:17:09;;;;;;;8.20;2.10;;;;;;;19.30;56.99;99248.87;25106;1316;3026564;-68
2022/07/15 03:19:38;;;;;;;5.10;2.40;;;;;;;19.27;57.16;99253.58;25060;1318;3049086;-65
2022/07/15 03:22:07;;;;;;;5.30;2.20;;;;;;;19.27;57.34;99253.19;25119;1316;3026192;-66
2022/07/15 03:24:37;;;;;;;5.20;2.30;;;;;;;19.25;57.47;99254.80;25059;1316;3058627;-66
2022/07/15 03:27:06;;;;;;;4.20;2.30;;;;;;;19.20;57.86;99255.72;25057;1318;3026488;-68
2022/07/15 03:29:35;;;;;;;8.10;2.60;;;;;;;19.23;58.03;99251.85;25016;1317;3054903;-64
2022/07/15 03:32:05;;;;;;;8.50;2.40;;;;;;;19.21;58.33;99250.80;25015;1316;3026931;-66
2022/07/15 03:34:34;;;;;;;4.00;2.10;;;;;;;19.17;59.11;99253.73;25057;1318;3026954;-68
2022/07/15 03:37:03;;;;;;;5.90;2.50;;;;;;;19.07;59.63;99252.95;25101;1318;3029367;-68
2022/07/15 03:39:32;;;;;;;8.20;2.80;;;;;;;19.04;59.26;99253.73;25029;1318;3058183;-65
2022/07/15 03:42:01;;;;;;;11.30;2.70;;;;;;;19.00;59.77;99256.05;25077;1317;3026607;-68
2022/07/15 03:44:31;;;;;;;7.10;3.00;;;;;;;18.92;60.56;99261.29;25089;1318;3054922;-69
2022/07/15 03:47:00;;;;;;;6.50;2.60;;;;;;;18.95;60.65;99256.02;25032;1318;3026853;-66
2022/07/15 03:49:29;;;;;;;5.60;2.70;;;;;;;18.95;60.81;99256.21;25027;1318;3052088;-68
2022/07/15 03:51:58;;;;;;;5.60;2.70;;;;;;;18.90;60.97;99256.41;25045;1318;3026529;-70
2022/07/15 03:54:30;;;;;;;8.50;2.70;;;;;;;18.83;61.38;99259.13;25056;1318;3051594;-68
2022/07/15 03:57:13;;;;;;;13.00;2.90;;;;;;;18.68;61.91;99261.14;25042;1318;3054752;-67
2022/07/15 03:59:42;;;;;;;11.10;3.30;;;;;;;18.76;62.22;99264.06;25050;1318;3026992;-67
2022/07/15 04:02:11;;;;;;;5.60;3.40;;;;;;;18.82;62.02;99262.08;24810;1316;3348484;-69
2022/07/15 04:04:41;;;;;;;9.20;3.30;;;;;;;18.76;62.34;99265.17;25098;1316;3026867;-66
2022/07/15 04:07:10;;;;;;;6.40;3.10;;;;;;;18.80;62.50;99269.18;25043;1318;3026776;-66
2022/07/15 04:09:39;;;;;;;6.20;3.20;;;;;;;18.74;62.85;99267.08;25066;1318;3047985;-65
2022/07/15 04:12:08;;;;;;;6.00;3.20;;;;;;;18.80;61.80;99268.13;25052;1318;3026140;-69
2022/07/15 04:14:41;;;;;;;7.40;3.20;;;;;;;18.81;61.50;99276.70;25086;1318;3070770;-68
2022/07/15 04:17:10;;;;;;;8.80;2.70;;;;;;;18.83;61.19;99275.66;25098;1319;3027450;-64
2022/07/15 04:19:40;;;;;;;8.50;3.90;;;;;;;18.80;61.22;99277.19;25103;1318;3030214;-66
2022/07/15 04:22:10;;;;;;;5.40;3.00;;;;;;;18.78;62.26;99275.74;25062;1317;3026814;-66
2022/07/15 04:24:46;;;;;;;10.30;3.90;;;;;;;18.79;62.55;99277.28;25086;1317;3049013;-66
2022/07/15 04:27:16;;;;;;;6.10;3.40;;;;;;;18.87;62.37;99279.33;25091;1316;3029079;-67
2022/07/15 04:29:46;;;;;;;16.30;4.20;;;;;;;18.93;62.26;99278.25;25097;1318;3027402;-68
2022/07/15 04:32:17;;;;;;;8.60;4.00;;;;;;;18.97;62.45;99278.02;25094;1318;3026916;-66
2022/07/15 04:34:49;;;;;;;10.40;4.40;;;;;;;19.04;62.60;99270.39;25089;1318;3026983;-68
2022/07/15 04:37:21;;;;;;;9.30;3.70;;;;;;;19.18;62.27;99269.55;25069;1316;3026789;-69
2022/07/15 04:39:55;;;;;;;7.40;3.60;;;;;;;19.28;62.39;99269.30;25085;1317;3054637;-69
2022/07/15 04:42:24;;;;;;;10.20;4.20;;;;;;;19.39;62.27;99269.76;25011;1318;3026732;-68
2022/07/15 04:44:54;;;;;;;10.10;4.00;;;;;;;19.54;61.79;99267.27;25045;1318;3026507;-68
2022/07/15 04:47:24;;;;;;;11.60;4.00;;;;;;;19.66;60.73;99270.65;25077;1318;3026877;-68
2022/07/15 04:52:46;;;;;;;8.20;3.00;;;;;;;19.89;59.86;99273.48;25080;1318;3055222;-66
2022/07/15 04:55:15;;;;;;;10.20;3.50;;;;;;;20.01;59.13;99275.81;24993;1319;3029266;-66
2022/07/15 04:57:44;;;;;;;9.00;3.20;;;;;;;20.14;59.13;99276.83;25092;1318;3027360;-62
2022/07/15 05:00:13;;;;;;;4.30;2.90;;;;;;;20.25;59.23;99281.66;25075;1318;3055869;-67
2022/07/15 05:02:42;;;;;;;6.80;3.40;;;;;;;20.33;59.06;99276.60;25083;1318;3028226;-68
2022/07/15 05:05:12;;;;;;;8.40;3.60;;;;;;;20.43;58.77;99282.05;25031;1318;3055398;-65
2022/07/15 05:07:41;;;;;;;11.20;3.30;;;;;;;20.55;59.08;99281.10;25062;1318;3026309;-68
2022/07/15 05:10:11;;;;;;;5.00;3.00;;;;;;;20.63;59.07;99285.23;25125;1318;3052188;-67
2022/07/15 05:12:41;;;;;;;9.90;3.40;;;;;;;20.68;58.89;99286.83;25056;1318;3026744;-67
2022/07/15 05:15:10;;;;;;;8.30;3.30;;;;;;;20.80;58.72;99287.14;25096;1318;3028875;-65
2022/07/15 05:17:42;;;;;;;10.20;3.40;;;;;;;20.88;58.35;99290.23;25095;1316;3052712;-69
2022/07/15 05:20:15;;;;;;;7.10;3.30;;;;;;;20.94;57.44;99291.38;25017;1317;3027401;-68
2022/07/15 05:22:45;;;;;;;7.30;3.50;;;;;;;21.05;57.05;99292.35;25021;1316;3027313;-68
2022/07/15 05:25:14;;;;;;;10.60;3.30;;;;;;;21.17;57.05;99294.13;25075;1318;3026638;-68
2022/07/15 05:27:44;;;;;;;9.60;3.40;;;;;;;21.28;57.13;99292.94;25081;1318;3055217;-68
2022/07/15 05:30:15;;;;;;;8.60;3.50;;;;;;;21.39;58.26;99294.94;25065;1318;3026717;-70
2022/07/15 05:32:44;;;;;;;11.20;3.00;;;;;;;21.51;58.27;99294.38;25091;1318;3054946;-69
2022/07/15 05:35:19;;;;;;;11.00;4.10;;;;;;;21.70;56.74;99295.65;25073;1316;3055166;-65
2022/07/15 05:37:48;;;;;;;10.80;4.20;;;;;;;21.89;58.05;99295.89;25028;1317;3026560;-70
2022/07/15 05:40:21;;;;;;;;;;;;;;;22.02;57.95;99292.41;25079;1317;3052771;-71
2022/07/15 05:42:55;;;;;;;8.90;4.60;;;;;;;22.09;58.56;99291.35;25123;1318;3026366;-70
2022/07/15 05:45:24;;;;;;;9.00;4.60;;;;;;;22.13;58.81;99294.64;25022;1317;3027953;-67
2022/07/15 05:48:04;;;;;;;10.10;4.00;;;;;;;22.20;57.94;99294.83;25106;1318;3050162;-66
2022/07/15 05:50:37;;;;;;;12.10;4.80;;;;;;;22.28;56.76;99295.36;25077;1317;3026807;-68
2022/07/15 05:53:06;;;;;;;9.10;4.30;;;;;;;22.41;57.41;99292.96;25016;1316;3026715;-69
2022/07/15 05:55:36;;;;;;;9.90;5.00;;;;;;;22.47;57.18;99299.10;25062;1316;3051365;-68
2022/07/15 05:58:07;;;;;;;16.60;4.60;;;;;;;22.54;55.45;99299.22;25124;1318;3026320;-70
2022/07/15 06:00:37;;;;;;;10.80;3.90;;;;;;;22.66;56.04;99295.86;25054;1316;3056818;-71
2022/07/15 06:03:06;;;;;;;8.10;3.10;;;;;;;22.70;52.16;99295.73;25087;1318;3026763;-67
2022/07/15 06:05:40;;;;;;;8.20;3.30;;;;;;;22.73;50.90;99297.59;25072;1317;3055628;-71
2022/07/15 06:08:10;;;;;;;9.20;3.40;;;;;;;22.84;51.95;99295.86;25053;1317;3026438;-67
2022/07/15 06:10:41;;;;;;;6.90;3.50;;;;;;;22.94;51.43;99298.71;25116;1318;3050819;-71
2022/07/15 06:13:10;;;;;;;17.10;3.40;;;;;;;23.05;52.34;99299.05;25024;1318;3027789;-68
2022/07/15 06:15:40;;;;;;;9.70;3.70;;;;;;;23.15;51.74;99295.14;24982;1318;3028275;-70
2022/07/15 06:18:10;;;;;;;12.70;4.10;;;;;;;23.25;51.93;99293.19;25030;1317;3026253;-69
2022/07/15 06:20:40;;;;;;;10.60;3.80;;;;;;;23.32;52.57;99294.91;25104;1318;3026851;-68
2022/07/15 06:23:10;;;;;;;10.50;4.00;;;;;;;23.36;50.76;99294.77;25124;1315;3026330;-69
2022/07/15 06:25:39;;;;;;;11.00;4.00;;;;;;;23.40;50.77;99293.97;25035;1317;3068942;-67
2022/07/15 06:28:08;;;;;;;11.90;4.10;;;;;;;23.51;51.59;99296.70;25031;1317;3027195;-69
2022/07/15 06:30:37;;;;;;;23.70;4.30;;;;;;;23.59;51.54;99293.95;25120;1318;3049615;-69
2022/07/15 06:33:08;;;;;;;12.50;4.00;;;;;;;23.69;50.97;99297.44;25056;1318;3026786;-66
2022/07/15 06:35:37;;;;;;;7.70;3.80;;;;;;;23.77;50.59;99299.65;25129;1316;3026260;-67
2022/07/15 06:38:06;;;;;;;7.90;3.40;;;;;;;23.84;49.93;99298.09;25104;1318;3029772;-69
2022/07/15 06:40:35;;;;;;;6.90;3.50;;;;;;;23.89;48.92;99300.41;25058;1318;3069280;-70
2022/07/15 06:43:06;;;;;;;10.60;3.40;;;;;;;23.94;47.90;99300.73;25067;1317;3027694;-70
2022/07/15 06:45:56;;;;;;;9.80;3.00;;;;;;;23.98;47.54;99300.96;25121;1318;3052160;-68
2022/07/15 06:48:25;;;;;;;5.80;3.20;;;;;;;24.00;47.49;99298.55;25021;1317;3026720;-68
2022/07/15 06:50:57;;;;;;;7.00;2.60;;;;;;;24.11;45.90;99296.48;25164;1318;3049085;-68
2022/07/15 06:53:26;;;;;;;3.40;2.70;;;;;;;24.14;45.32;99295.81;25317;1318;3026663;-68
2022/07/15 06:55:55;;;;;;;3.60;2.20;;;;;;;24.17;44.80;99299.77;25387;1317;3070560;-68
2022/07/15 06:58:24;;;;;;;3.60;2.60;;;;;;;24.27;44.65;99300.66;25359;1317;3026156;-66
2022/07/15 07:00:53;;;;;;;8.80;2.70;;;;;;;24.35;45.05;99295.42;25179;1318;3050341;-72
2022/07/15 07:03:22;;;;;;;8.70;3.00;;;;;;;24.48;45.26;99298.32;25074;1318;3027552;-71
2022/07/15 07:05:51;;;;;;;5.30;2.60;;;;;;;24.57;45.17;99292.90;25136;1318;3026119;-70
2022/07/15 07:08:23;;;;;;;7.20;3.20;;;;;;;24.68;43.91;99295.77;25153;1318;3053181;-66
2022/07/15 07:10:52;;;;;;;5.50;2.50;;;;;;;24.72;43.84;99299.63;25103;1318;3026755;-71
2022/07/15 07:13:39;;;;;;;8.10;2.80;;;;;;;24.85;42.52;99296.38;25078;1318;3058016;-71
2022/07/15 07:16:09;;;;;;;6.30;2.50;;;;;;;24.95;42.37;99294.95;25100;1318;3026672;-70
2022/07/15 07:18:38;;;;;;;8.20;2.70;;;;;;;25.08;42.11;99295.46;25071;1318;3026697;-72
2022/07/15 07:21:07;;;;;;;3.20;2.00;;;;;;;25.11;39.17;99291.56;25072;1318;3055099;-69
2022/07/15 07:23:39;;;;;;;3.90;2.30;;;;;;;25.17;39.64;99296.88;25090;1318;3026392;-68
2022/07/15 07:26:09;;;;;;;8.30;2.70;;;;;;;25.34;41.03;99289.59;25079;1318;3050799;-70
2022/07/15 07:28:40;;;;;;;6.10;2.50;;;;;;;25.42;40.82;99291.79;25129;1318;3026740;-69
2022/07/15 07:31:11;;;;;;;3.30;2.20;;;;;;;25.49;40.07;99290.07;25176;1318;3026483;-68
2022/07/15 07:33:42;;;;;;;3.50;2.10;;;;;;;25.50;38.21;99290.31;25096;1316;3026584;-68
2022/07/15 07:36:11;;;;;;;3.20;2.20;;;;;;;25.42;37.95;99288.10;25134;1320;3027059;-66
2022/07/15 07:38:41;;;;;;;10.20;2.00;;;;;;;25.50;38.06;99289.66;25070;1317;3026658;-68
2022/07/15 07:41:10;;;;;;;9.40;2.10;;;;;;;25.63;37.49;99279.34;25128;1316;3069405;-69
2022/07/15 07:43:39;;;;;;;3.00;1.90;;;;;;;25.76;37.92;99277.81;25140;1316;3026469;-69
2022/07/15 07:46:10;;;;;;;5.20;1.90;;;;;;;25.84;37.12;99279.02;25267;1316;3053451;-68
2022/07/15 07:48:39;;;;;;;7.00;1.90;;;;;;;25.87;36.79;99280.90;25270;1315;3029603;-70
2022/07/15 07:51:09;;;;;;;4.20;2.00;;;;;;;25.85;36.72;99278.45;25207;1316;3026596;-66
2022/07/15 07:53:38;;;;;;;5.30;2.20;;;;;;;25.78;35.65;99281.55;25156;1315;3053540;-72
2022/07/15 07:56:07;;;;;;;3.80;1.90;;;;;;;25.83;35.37;99276.11;25233;1318;3026454;-69
2022/07/15 07:58:39;;;;;;;2.70;1.80;;;;;;;25.97;35.77;99277.28;25145;1316;3029309;-69
2022/07/15 08:01:08;;;;;;;3.30;1.80;;;;;;;26.13;35.38;99274.90;25263;1317;3029963;-69
2022/07/15 08:03:38;;;;;;;9.50;2.00;;;;;;;26.14;35.47;99274.59;25143;1316;3026780;-68
2022/07/15 08:06:07;;;;;;;4.50;2.20;;;;;;;26.18;35.29;99274.35;25131;1316;3030334;-68
2022/07/15 08:08:38;;;;;;;3.20;2.10;;;;;;;26.40;35.36;99273.80;25180;1318;3053480;-72
2022/07/15 08:11:08;;;;;;;7.90;2.50;;;;;;;26.54;35.34;99278.78;25215;1318;3026971;-71
2022/07/15 08:13:38;;;;;;;3.60;1.90;;;;;;;26.58;35.04;99278.80;25185;1316;3026509;-68
2022/07/15 08:16:08;;;;;;;5.50;2.20;;;;;;;26.67;34.90;99269.87;25132;1318;3054055;-68
2022/07/15 08:18:37;;;;;;;5.00;2.30;;;;;;;26.70;34.90;99268.77;25186;1317;3026302;-74
2022/07/15 08:21:06;;;;;;;4.70;2.40;;;;;;;26.73;35.33;99263.97;25165;1318;3048024;-69
2022/07/15 08:23:35;;;;;;;5.50;2.30;;;;;;;26.67;35.03;99259.34;25333;1316;3026920;-69
2022/07/15 08:26:06;;;;;;;3.60;2.00;;;;;;;26.78;35.48;99257.83;25207;1318;3068159;-73
2022/07/15 08:28:36;;;;;;;4.70;2.20;;;;;;;26.90;35.30;99257.96;25182;1318;3026457;-67
2022/07/15 08:31:05;;;;;;;5.50;2.40;;;;;;;27.04;35.58;99252.27;25157;1318;3026905;-71
2022/07/15 08:33:33;;;;;;;6.60;2.30;;;;;;;27.11;35.86;99251.52;25147;1316;3026685;-71
2022/07/15 08:36:03;;;;;;;7.10;2.50;;;;;;;27.21;35.58;99248.63;25246;1316;3048290;-69
2022/07/15 08:38:32;;;;;;;8.20;2.50;;;;;;;27.30;35.08;99245.59;25259;1317;3027293;-68
2022/07/15 08:41:01;;;;;;;5.80;2.20;;;;;;;27.38;35.05;99244.87;25160;1318;3070305;-70
2022/07/15 08:43:30;;;;;;;3.90;2.20;;;;;;;27.40;34.63;99243.58;25272;1318;3027474;-67
2022/07/15 08:45:59;;;;;;;4.70;2.30;;;;;;;27.45;34.82;99249.65;25193;1318;3053608;-71
2022/07/15 08:48:28;;;;;;;4.20;2.50;;;;;;;27.42;34.87;99245.10;25211;1318;3026574;-67
2022/07/15 08:50:58;;;;;;;5.80;2.10;;;;;;;27.45;34.72;99242.76;25212;1317;3052621;-66
2022/07/15 08:53:27;;;;;;;5.60;2.40;;;;;;;27.60;34.45;99242.58;25157;1316;3027464;-64
2022/07/15 08:55:57;;;;;;;6.00;2.20;;;;;;;27.68;34.54;99240.82;25163;1318;3027090;-70
2022/07/15 08:58:27;;;;;;;3.80;2.50;;;;;;;27.86;34.11;99240.77;25319;1318;3026754;-67
2022/07/15 09:00:55;;;;;;;5.50;2.60;;;;;;;27.98;33.99;99240.38;25224;1318;3026725;-68
2022/07/15 09:03:24;;;;;;;5.50;2.60;;;;;;;28.06;33.92;99234.10;25239;1318;3071027;-68
2022/07/15 09:05:54;;;;;;;4.50;2.40;;;;;;;27.96;34.16;99240.13;25251;1316;3026645;-69
2022/07/15 09:08:24;;;;;;;2.80;2.40;;;;;;;27.98;33.89;99237.30;25187;1316;3027154;-69
2022/07/15 09:11:00;;;;;;;3.60;2.40;;;;;;;28.14;33.58;99234.73;25193;1315;3070571;-67
2022/07/15 09:13:39;;;;;;;4.40;1.90;;;;;;;28.13;33.60;99226.89;25240;1318;3049143;-70
2022/07/15 09:16:13;;;;;;;8.60;2.20;;;;;;;28.30;33.53;99222.58;25175;1318;3051894;-66
2022/07/15 09:18:44;;;;;;;5.50;2.20;;;;;;;28.22;33.58;99234.73;25276;1317;3053519;-67
2022/07/15 09:21:21;;;;;;;3.40;2.30;;;;;;;28.28;33.40;99229.20;25334;1315;3026352;-64
2022/07/15 09:23:52;;;;;;;11.20;2.40;;;;;;;28.32;33.41;99226.32;25137;1318;3054959;-68
2022/07/15 09:26:22;;;;;;;7.00;2.40;;;;;;;28.40;33.70;99221.36;25238;1318;3026610;-70
2022/07/15 09:28:51;;;;;;;6.50;2.40;;;;;;;28.43;33.53;99222.23;25138;1318;3028476;-72
2022/07/15 09:34:19;;;;;;;5.10;2.40;;;;;;;28.78;32.41;99213.27;25197;1318;3055814;-70
2022/07/15 09:36:54;;;;;;;4.40;2.60;;;;;;;28.95;32.51;99209.80;25219;1317;3027181;-65
2022/07/15 09:39:24;;;;;;;6.50;2.30;;;;;;;28.78;32.80;99213.04;25154;1318;3068479;-68
2022/07/15 09:41:54;;;;;;;4.10;2.30;;;;;;;28.76;33.05;99209.71;25285;1318;3026754;-68
2022/07/15 09:44:23;;;;;;;3.30;2.20;;;;;;;28.73;32.59;99211.57;25203;1316;3026639;-72
2022/07/15 09:47:19;;;;;;;4.50;2.30;;;;;;;28.86;31.75;99205.94;25132;1318;3070001;-70
2022/07/15 09:49:48;;;;;;;6.10;2.40;;;;;;;29.00;32.00;99208.52;25147;1318;3026528;-68
2022/07/15 09:52:17;;;;;;;6.40;2.70;;;;;;;29.04;31.48;99208.48;25200;1316;3026680;-67
2022/07/15 09:54:47;;;;;;;3.90;2.50;;;;;;;29.26;31.35;99205.56;25133;1316;3027695;-71
2022/07/15 09:57:18;;;;;;;3.80;2.40;;;;;;;29.40;31.72;99203.83;25143;1318;3048971;-66
2022/07/15 09:59:48;;;;;;;3.30;2.50;;;;;;;29.42;31.46;99199.93;25151;1317;3026980;-71
2022/07/15 10:02:17;;;;;;;4.50;2.30;;;;;;;29.62;31.33;99193.83;25185;1316;3028636;-69
2022/07/15 10:04:47;;;;;;;5.10;2.30;;;;;;;29.85;31.04;99192.13;25154;1317;3026123;-68
2022/07/15 10:07:16;;;;;;;6.40;2.60;;;;;;;29.98;30.93;99198.45;25176;1316;3051378;-69
2022/07/15 10:09:47;;;;;;;2.70;2.20;;;;;;;29.78;30.96;99193.36;25178;1316;3027530;-68
2022/07/15 10:12:19;;;;;;;5.90;2.20;;;;;;;29.91;30.88;99187.77;25227;1317;3026180;-70
2022/07/15 10:14:52;;;;;;;5.70;2.20;;;;;;;30.06;30.95;99187.65;25134;1317;3052030;-70
2022/07/15 10:17:32;;;;;;;4.80;2.10;;;;;;;29.90;30.89;99187.41;25250;1316;3053614;-67
2022/07/15 10:20:40;;;;;;;4.60;2.40;;;;;;;29.93;30.40;99188.67;25198;1317;3056059;-71
2022/07/15 10:23:15;;;;;;;5.10;2.50;;;;;;;30.04;30.54;99188.45;25035;1321;3052231;-66
2022/07/15 10:26:08;;;;;;;5.80;2.30;;;;;;;29.79;31.05;99187.83;25159;1318;3053639;-65
2022/07/15 10:29:01;;;;;;;6.40;2.30;;;;;;;29.54;31.65;99185.45;25148;1317;3051698;-73
2022/07/15 10:31:31;;;;;;;2.70;2.30;;;;;;;29.59;31.62;99183.48;25134;1318;3068254;-68
2022/07/15 10:34:02;;;;;;;4.50;2.30;;;;;;;29.59;31.49;99178.08;25142;1318;3026081;-68
2022/07/15 10:36:49;;;;;;;4.10;1.70;;;;;;;29.91;31.57;99175.19;25160;1317;3026851;-66
2022/07/15 10:39:24;;;;;;;8.00;2.10;;;;;;;30.20;31.05;99177.85;25144;1318;3054860;-68
2022/07/15 10:42:03;;;;;;;7.60;2.40;;;;;;;30.51;30.48;99180.65;25310;1316;3059645;-65
2022/07/15 10:44:34;;;;;;;4.40;2.10;;;;;;;30.60;29.85;99178.06;25194;1318;3049991;-71
2022/07/15 10:47:12;;;;;;;4.10;2.10;;;;;;;30.57;29.92;99170.01;25242;1316;3026890;-67
2022/07/15 10:49:48;;;;;;;4.80;2.10;;;;;;;30.60;29.85;99172.10;25243;1317;3051642;-69
2022/07/15 10:52:18;;;;;;;5.70;2.20;;;;;;;30.59;29.79;99174.69;25189;1317;3069972;-64
2022/07/15 10:54:59;;;;;;;3.60;2.00;;;;;;;30.49;29.96;99168.84;25115;1317;3026836;-71
2022/07/15 10:57:47;;;;;;;6.90;2.50;;;;;;;30.49;30.40;99167.05;25100;1320;3053117;-69
2022/07/15 11:00:33;;;;;;;9.50;2.70;;;;;;;30.34;30.62;99166.14;24990;1317;3052807;-67
2022/07/15 11:03:19;;;;;;;3.50;2.80;;;;;;;30.38;30.62;99163.75;25094;1317;3057071;-70
2022/07/15 11:05:51;;;;;;;6.60;2.40;;;;;;;30.54;30.35;99162.73;25022;1317;3050341;-68
2022/07/15 11:08:32;;;;;;;2.90;2.10;;;;;;;30.73;30.08;99161.23;25086;1319;3026568;-69
2022/07/15 11:11:14;;;;;;;12.30;2.60;;;;;;;31.09;29.99;99152.81;25086;1319;3051932;-64
2022/07/15 11:13:44;;;;;;;2.50;2.10;;;;;;;31.26;29.36;99146.43;24976;1317;3068375;-65
2022/07/15 11:16:15;;;;;;;4.80;2.10;;;;;;;31.16;29.37;99148.05;25125;1317;3029432;-68
2022/07/15 11:18:49;;;;;;;5.80;2.10;;;;;;;31.06;29.83;99148.23;25199;1317;3026496;-68
2022/07/15 11:21:19;;;;;;;3.90;2.60;;;;;;;31.25;29.12;99139.52;25488;1317;3052584;-68
2022/07/15 11:23:50;;;;;;;3.30;2.00;;;;;;;31.22;28.99;99144.83;25469;1319;3026245;-67
2022/07/15 11:26:19;;;;;;;9.00;2.50;;;;;;;31.12;29.14;99143.52;25300;1317;3026884;-70
2022/07/15 11:28:55;;;;;;;5.60;2.00;;;;;;;31.20;29.39;99140.27;25069;1317;3026846;-70
2022/07/15 11:31:25;;;;;;;6.30;2.30;;;;;;;31.22;29.13;99142.54;25066;1317;3054322;-66
2022/07/15 11:33:55;;;;;;;5.40;2.30;;;;;;;30.98;29.07;99154.73;25016;1319;3026009;-68
2022/07/15 11:36:24;;;;;;;3.50;2.20;;;;;;;31.25;28.70;99141.42;25036;1317;3026324;-70
2022/07/15 11:38:53;;;;;;;2.90;2.20;;;;;;;31.45;28.97;99142.19;25051;1319;3051489;-70
2022/07/15 11:44:30;;;;;;;4.50;2.00;;;;;;;31.68;28.30;99146.06;25056;1317;3049731;-68
2022/07/15 11:47:00;;;;;;;5.00;2.20;;;;;;;31.87;28.42;99147.66;25178;1317;3053376;-71